createdAt,value
2022-09-01T00:00:30.006Z,96842.97
2022-09-01T00:02:59.913Z,96836.78
2022-09-01T00:05:28.274Z,96840.19
2022-09-01T00:07:57.662Z,96840.19
2022-09-01T00:10:26.420Z,96833.31
2022-09-01T00:12:54.529Z,96835.41
2022-09-01T00:15:23.029Z,96843.41
2022-09-01T00:17:51.124Z,96843.72
2022-09-01T00:20:20.708Z,96841.03
2022-09-01T00:22:49.640Z,96841.22
2022-09-01T00:25:20.838Z,96837.88
2022-09-01T00:27:49.640Z,96844.56
2022-09-01T00:30:18.446Z,96837.56
2022-09-01T00:32:46.985Z,96831.97
2022-09-01T00:35:16.089Z,96831.97
2022-09-01T00:37:44.245Z,96839.53
2022-09-01T00:40:15.638Z,96836.88
2022-09-01T00:42:46.216Z,96835.88
2022-09-01T00:45:14.493Z,96838.97
2022-09-01T00:47:43.842Z,96837.41
2022-09-01T00:50:16.171Z,96838.69
2022-09-01T00:52:49.187Z,96842.47
2022-09-01T00:55:20.334Z,96833.63
2022-09-01T00:57:50.290Z,96836.72
2022-09-01T01:00:21.588Z,96840.69
2022-09-01T01:02:56.217Z,96840.69
2022-09-01T01:05:28.041Z,96839.28
2022-09-01T01:07:57.018Z,96838.44
2022-09-01T01:10:26.784Z,96837.34
2022-09-01T01:12:56.292Z,96836.34
2022-09-01T01:15:24.337Z,96832.13
2022-09-01T01:17:52.428Z,96830.03
2022-09-01T01:20:40.503Z,96838.44
2022-09-01T01:23:19.598Z,96832.28
2022-09-01T01:25:51.822Z,96836.06
2022-09-01T01:28:22.445Z,96827.38
2022-09-01T01:30:55.714Z,96835.50
2022-09-01T01:33:26.717Z,96824.72
2022-09-01T01:35:57.688Z,96829.06
2022-09-01T01:38:28.270Z,96826.66
2022-09-01T01:40:59.024Z,96828.38
2022-09-01T01:43:29.031Z,96834.53
2022-09-01T01:46:02.629Z,96833.69
2022-09-01T01:48:37.274Z,96832.84
2022-09-01T01:51:06.488Z,96825.00
2022-09-01T01:53:35.929Z,96831.72
2022-09-01T01:56:06.310Z,96834.22
2022-09-01T01:58:37.043Z,96839.81
2022-09-01T02:01:11.926Z,96831.72
2022-09-01T02:03:40.794Z,96831.44
2022-09-01T02:06:11.932Z,96837.16
2022-09-01T02:08:42.095Z,96825.25
2022-09-01T02:11:13.200Z,96835.06
2022-09-01T02:13:41.476Z,96835.34
2022-09-01T02:16:13.422Z,96838.69
2022-09-01T02:18:48.128Z,96839.56
2022-09-01T02:21:20.485Z,96827.78
2022-09-01T02:23:50.275Z,96826.94
2022-09-01T02:26:25.119Z,96830.28
2022-09-01T02:28:55.937Z,96822.28
2022-09-01T02:31:29.002Z,96828.47
2022-09-01T02:34:01.230Z,96830.28
2022-09-01T02:36:32.754Z,96830.97
2022-09-01T02:39:01.267Z,96839.25
2022-09-01T02:41:32.353Z,96831.97
2022-09-01T02:44:02.550Z,96830.44
2022-09-01T02:46:31.727Z,96840.25
2022-09-01T02:49:01.624Z,96838.56
2022-09-01T02:51:29.744Z,96836.03
2022-09-01T02:53:58.600Z,96835.19
2022-09-01T02:56:27.663Z,96832.00
2022-09-01T02:58:57.893Z,96835.34
2022-09-01T03:01:30.247Z,96829.88
2022-09-01T03:04:01.956Z,96826.50
2022-09-01T03:06:34.445Z,96828.63
2022-09-01T03:09:03.759Z,96832.13
2022-09-01T03:11:34.098Z,96821.63
2022-09-01T03:14:03.685Z,96823.44
2022-09-01T03:16:32.208Z,96819.38
2022-09-01T03:19:03.360Z,96823.03
2022-09-01T03:21:32.951Z,96815.63
2022-09-01T03:24:02.254Z,96817.44
2022-09-01T03:26:32.342Z,96815.06
2022-09-01T03:29:00.435Z,96811.72
2022-09-01T03:31:31.251Z,96819.81
2022-09-01T03:34:03.407Z,96824.44
2022-09-01T03:36:35.828Z,96823.75
2022-09-01T03:39:04.266Z,96825.00
2022-09-01T03:41:33.899Z,96818.00
2022-09-01T03:44:02.066Z,96820.81
2022-09-01T03:46:37.113Z,96809.63
2022-09-01T03:49:08.129Z,96809.63
2022-09-01T03:51:39.449Z,96814.94
2022-09-01T03:54:09.350Z,96817.72
2022-09-01T03:56:41.708Z,96817.88
2022-09-01T03:59:17.075Z,96823.63
2022-09-01T04:01:48.012Z,96823.91
2022-09-01T04:04:17.088Z,96824.44
2022-09-01T04:06:47.794Z,96828.06
2022-09-01T04:09:16.304Z,96828.06
2022-09-01T04:11:47.110Z,96831.00
2022-09-01T04:14:17.082Z,96829.47
2022-09-01T04:17:05.403Z,96829.59
2022-09-01T04:19:38.582Z,96832.53
2022-09-01T04:22:07.882Z,96843.44
2022-09-01T04:24:46.675Z,96837.31
2022-09-01T04:27:18.171Z,96839.38
2022-09-01T04:29:48.548Z,96838.53
2022-09-01T04:32:21.388Z,96833.34
2022-09-01T04:34:53.266Z,96830.84
2022-09-01T04:37:23.666Z,96836.72
2022-09-01T04:39:57.513Z,96834.75
2022-09-01T04:42:29.250Z,96835.31
2022-09-01T04:45:03.120Z,96840.09
2022-09-01T04:47:42.281Z,96839.38
2022-09-01T04:50:17.596Z,96836.47
2022-09-01T04:53:07.320Z,96837.31
2022-09-01T04:55:50.235Z,96834.78
2022-09-01T04:58:22.280Z,96840.69
2022-09-01T05:00:53.117Z,96842.34
2022-09-01T05:03:24.944Z,96838.56
2022-09-01T05:06:01.259Z,96835.06
2022-09-01T05:08:32.756Z,96838.56
2022-09-01T05:11:07.587Z,96835.78
2022-09-01T05:13:41.857Z,96832.41
2022-09-01T05:16:13.217Z,96833.81
2022-09-01T05:18:47.606Z,96837.59
2022-09-01T05:21:20.019Z,96841.22
2022-09-01T05:23:52.018Z,96837.59
2022-09-01T05:26:23.954Z,96846.00
2022-09-01T05:28:55.104Z,96844.88
2022-09-01T05:31:24.998Z,96844.88
2022-09-01T05:33:55.631Z,96846.13
2022-09-01T05:36:25.180Z,96843.75
2022-09-01T05:38:57.115Z,96839.84
2022-09-01T05:41:26.377Z,96828.09
2022-09-01T05:44:00.060Z,96833.53
2022-09-01T05:46:30.163Z,96835.50
2022-09-01T05:49:01.318Z,96826.16
2022-09-01T05:51:44.501Z,96822.91
2022-09-01T05:54:15.257Z,96819.69
2022-09-01T05:56:44.864Z,96825.72
2022-09-01T05:59:25.832Z,96823.75
2022-09-01T06:02:00.553Z,96823.06
2022-09-01T06:04:31.133Z,96822.47
2022-09-01T06:07:10.234Z,96821.22
2022-09-01T06:09:45.280Z,96823.75
2022-09-01T06:12:18.959Z,96830.03
2022-09-01T06:14:49.185Z,96824.28
2022-09-01T06:17:19.634Z,96818.50
2022-09-01T06:19:49.614Z,96818.53
2022-09-01T06:22:17.755Z,96827.63
2022-09-01T06:24:49.657Z,96829.97
2022-09-01T06:27:22.698Z,96830.53
2022-09-01T06:29:53.726Z,96834.13
2022-09-01T06:32:25.888Z,96829.88
2022-09-01T06:34:59.141Z,96830.59
2022-09-01T06:37:28.874Z,96828.47
2022-09-01T06:40:03.534Z,96833.75
2022-09-01T06:42:35.320Z,96834.16
2022-09-01T06:45:03.740Z,96823.75
2022-09-01T06:47:32.838Z,96837.84
2022-09-01T06:50:03.695Z,96829.81
2022-09-01T06:53:31.950Z,96826.56
2022-09-01T06:55:20.999Z,96827.38
2022-09-01T06:58:09.519Z,96832.97
2022-09-01T07:00:44.077Z,96837.16
2022-09-01T07:03:15.215Z,96836.56
2022-09-01T07:06:01.355Z,96840.50
2022-09-01T07:16:30.244Z,96847.25
2022-09-01T07:17:26.287Z,96854.34
2022-09-01T07:19:56.075Z,96844.75
2022-09-01T07:25:16.807Z,96847.91
2022-09-01T07:28:09.032Z,96851.53
2022-09-01T07:30:42.874Z,96852.31
2022-09-01T07:45:25.577Z,96859.56
2022-09-01T07:47:55.884Z,96862.59
2022-09-01T07:50:40.188Z,96865.84
2022-09-01T07:53:18.453Z,96870.03
2022-09-01T07:55:51.207Z,96866.56
2022-09-01T07:58:22.123Z,96870.28
2022-09-01T08:00:56.218Z,96869.75
2022-09-01T08:03:26.746Z,96875.47
2022-09-01T08:06:00.764Z,96877.94
2022-09-01T08:08:29.632Z,96883.31
2022-09-01T08:11:07.864Z,96881.16
2022-09-01T08:13:41.622Z,96877.88
2022-09-01T08:16:18.983Z,96880.38
2022-09-01T08:18:49.767Z,96884.56
2022-09-01T08:21:41.556Z,96881.25
2022-09-01T08:24:26.380Z,96889.16
2022-09-01T08:26:56.018Z,96890.00
2022-09-01T08:29:24.373Z,96878.31
2022-09-01T08:31:54.437Z,96884.22
2022-09-01T08:34:22.678Z,96887.41
2022-09-01T08:36:51.168Z,96888.34
2022-09-01T08:39:21.284Z,96885.41
2022-09-01T08:41:59.097Z,96886.22
2022-09-01T08:44:37.999Z,96893.28
2022-09-01T08:47:13.744Z,96895.16
2022-09-01T08:49:47.389Z,96893.84
2022-09-01T08:52:30.504Z,96898.03
2022-09-01T08:55:05.529Z,96896.25
2022-09-01T08:57:36.060Z,96893.09
2022-09-01T09:00:23.394Z,96905.22
2022-09-01T09:03:08.789Z,96893.91
2022-09-01T09:05:50.900Z,96893.59
2022-09-01T09:08:44.960Z,96896.16
2022-09-01T09:11:32.864Z,96895.78
2022-09-01T09:14:07.038Z,96893.97
2022-09-01T09:16:40.867Z,96891.13
2022-09-01T09:19:12.349Z,96899.50
2022-09-01T09:21:42.616Z,96901.34
2022-09-01T09:24:19.321Z,96898.53
2022-09-01T09:26:50.791Z,96894.84
2022-09-01T09:29:20.617Z,96894.81
2022-09-01T09:32:02.276Z,96899.53
2022-09-01T09:34:33.617Z,96905.38
2022-09-01T09:37:25.066Z,96895.72
2022-09-01T09:40:15.112Z,96899.72
2022-09-01T09:43:01.644Z,96892.38
2022-09-01T09:45:33.962Z,96901.72
2022-09-01T09:48:08.054Z,96895.38
2022-09-01T09:50:43.251Z,96893.34
2022-09-01T09:53:16.329Z,96895.38
2022-09-01T09:55:58.314Z,96886.19
2022-09-01T09:58:29.900Z,96892.03
2022-09-01T10:01:03.997Z,96892.53
2022-09-01T10:03:42.362Z,96886.00
2022-09-01T10:06:13.406Z,96886.50
2022-09-01T10:08:48.223Z,96893.88
2022-09-01T10:11:33.508Z,96887.34
2022-09-01T10:14:08.725Z,96886.50
2022-09-01T10:16:43.108Z,96881.97
2022-09-01T10:19:16.370Z,96886.66
2022-09-01T10:21:46.953Z,96884.13
2022-09-01T10:24:22.316Z,96890.47
2022-09-01T10:26:58.613Z,96891.16
2022-09-01T10:29:35.547Z,96882.44
2022-09-01T10:32:35.045Z,96877.72
2022-09-01T10:35:09.251Z,96880.03
2022-09-01T10:37:38.649Z,96884.06
2022-09-01T10:40:30.158Z,96878.69
2022-09-01T10:43:05.597Z,96875.53
2022-09-01T10:45:38.199Z,96863.56
2022-09-01T10:48:33.672Z,96877.19
2022-09-01T10:51:50.583Z,96873.94
2022-09-01T10:55:01.363Z,96872.28
2022-09-01T10:57:46.299Z,96860.22
2022-09-01T11:03:51.954Z,96863.06
2022-09-01T11:07:13.354Z,96864.59
2022-09-01T11:09:43.631Z,96870.28
2022-09-01T11:12:31.879Z,96860.03
2022-09-01T11:15:03.105Z,96863.16
2022-09-01T11:17:33.712Z,96855.47
2022-09-01T11:20:08.783Z,96853.75
2022-09-01T11:22:40.322Z,96855.56
2022-09-01T11:25:41.290Z,96847.50
2022-09-01T11:28:38.584Z,96846.47
2022-09-01T11:31:26.377Z,96843.16
2022-09-01T11:34:18.073Z,96842.50
2022-09-01T11:37:13.395Z,96836.28
2022-09-01T11:39:47.797Z,96840.53
2022-09-01T11:42:20.414Z,96842.19
2022-09-01T11:44:57.727Z,96831.75
2022-09-01T11:47:29.374Z,96834.91
2022-09-01T11:50:00.936Z,96837.38
2022-09-01T11:52:32.485Z,96829.19
2022-09-01T11:55:01.073Z,96840.50
2022-09-01T11:57:32.155Z,96828.91
2022-09-01T12:00:06.324Z,96826.34
2022-09-01T12:02:45.757Z,96824.13
2022-09-01T12:05:27.957Z,96825.81
2022-09-01T12:07:57.037Z,96826.06
2022-09-01T12:10:33.137Z,96828.00
2022-09-01T12:13:02.599Z,96830.69
2022-09-01T12:15:35.007Z,96825.69
2022-09-01T12:18:20.980Z,96818.63
2022-09-01T12:20:51.254Z,96810.91
2022-09-01T12:23:26.666Z,96813.88
2022-09-01T12:25:57.372Z,96819.66
2022-09-01T12:28:30.419Z,96808.91
2022-09-01T12:31:02.926Z,96814.16
2022-09-01T12:33:36.732Z,96827.19
2022-09-01T12:36:16.700Z,96822.94
2022-09-01T12:38:44.824Z,96812.94
2022-09-01T12:41:25.592Z,96809.28
2022-09-01T12:43:54.686Z,96811.59
2022-09-01T12:46:44.842Z,96812.97
2022-09-01T12:49:20.726Z,96809.22
2022-09-01T12:51:48.962Z,96806.16
2022-09-01T12:54:17.230Z,96796.94
2022-09-01T12:56:51.279Z,96803.41
2022-09-01T12:59:31.987Z,96808.06
2022-09-01T13:02:35.152Z,96805.97
2022-09-01T13:05:30.671Z,96806.53
2022-09-01T13:08:02.838Z,96805.53
2022-09-01T13:10:34.421Z,96804.06
2022-09-01T13:13:03.039Z,96802.00
2022-09-01T13:15:32.219Z,96798.31
2022-09-01T13:18:01.697Z,96798.31
2022-09-01T13:20:30.108Z,96794.41
2022-09-01T13:22:59.319Z,96792.75
2022-09-01T13:25:27.532Z,96787.19
2022-09-01T13:27:55.866Z,96787.66
2022-09-01T13:30:28.427Z,96791.91
2022-09-01T13:35:47.537Z,96788.56
2022-09-01T13:38:16.920Z,96790.69
2022-09-01T13:40:46.902Z,96780.88
2022-09-01T13:43:15.680Z,96783.56
2022-09-01T13:45:45.166Z,96784.41
2022-09-01T13:48:15.906Z,96782.81
2022-09-01T13:53:35.100Z,96787.84
2022-09-01T13:56:03.514Z,96775.56
2022-09-01T13:58:31.751Z,96782.81
2022-09-01T14:01:00.233Z,96771.78
2022-09-01T14:03:29.718Z,96781.72
2022-09-01T14:05:57.826Z,96783.84
2022-09-01T14:08:26.217Z,96773.44
2022-09-01T14:10:55.774Z,96774.66
2022-09-01T14:13:26.014Z,96764.53
2022-09-01T14:15:55.337Z,96768.72
2022-09-01T14:18:36.672Z,96762.63
2022-09-01T14:21:04.999Z,96770.50
2022-09-01T14:23:33.117Z,96759.53
2022-09-01T14:26:02.749Z,96762.50
2022-09-01T14:28:30.907Z,96757.34
2022-09-01T14:33:27.397Z,96761.66
2022-09-01T14:35:55.637Z,96764.63
2022-09-01T14:38:23.790Z,96763.97
2022-09-01T14:40:52.621Z,96753.44
2022-09-01T14:43:23.027Z,96753.13
2022-09-01T14:45:51.928Z,96754.34
2022-09-01T14:48:21.584Z,96754.25
2022-09-01T14:50:51.046Z,96749.13
2022-09-01T14:53:19.610Z,96748.47
2022-09-01T14:55:48.927Z,96746.19
2022-09-01T14:58:18.629Z,96750.59
2022-09-01T15:00:48.295Z,96748.13
2022-09-01T15:03:19.337Z,96759.06
2022-09-01T15:05:51.203Z,96753.34
2022-09-01T15:08:19.699Z,96744.25
2022-09-01T15:10:48.227Z,96744.16
2022-09-01T15:13:16.353Z,96743.22
2022-09-01T15:15:44.969Z,96750.91
2022-09-01T15:18:14.438Z,96746.75
2022-09-01T15:20:51.029Z,96754.00
2022-09-01T15:23:21.417Z,96749.94
2022-09-01T15:25:52.020Z,96752.81
2022-09-01T15:28:20.712Z,96740.00
2022-09-01T15:30:48.999Z,96742.06
2022-09-01T15:33:19.169Z,96744.47
2022-09-01T15:35:47.759Z,96746.50
2022-09-01T15:38:17.840Z,96732.59
2022-09-01T15:40:57.128Z,96737.13
2022-09-01T15:43:27.170Z,96733.44
2022-09-01T15:45:55.583Z,96725.38
2022-09-01T15:48:25.831Z,96725.56
2022-09-01T15:50:54.047Z,96721.19
2022-09-01T15:53:22.307Z,96728.25
2022-09-01T15:55:50.676Z,96727.59
2022-09-01T15:58:20.226Z,96723.50
2022-09-01T16:00:48.226Z,96717.69
2022-09-01T16:03:16.906Z,96721.38
2022-09-01T16:05:46.399Z,96722.03
2022-09-01T16:08:14.583Z,96717.69
2022-09-01T16:10:43.354Z,96712.13
2022-09-01T16:13:13.184Z,96719.16
2022-09-01T16:15:47.870Z,96717.22
2022-09-01T16:18:32.485Z,96712.03
2022-09-01T16:21:09.334Z,96705.19
2022-09-01T16:23:44.142Z,96702.00
2022-09-01T16:26:12.887Z,96706.19
2022-09-01T16:28:46.090Z,96704.44
2022-09-01T16:31:16.403Z,96699.88
2022-09-01T16:33:49.268Z,96705.72
2022-09-01T16:36:34.751Z,96703.16
2022-09-01T16:39:10.548Z,96699.88
2022-09-01T16:41:48.614Z,96696.53
2022-09-01T16:44:27.558Z,96692.19
2022-09-01T16:47:07.103Z,96694.88
2022-09-01T16:49:43.862Z,96701.22
2022-09-01T16:52:23.143Z,96694.94
2022-09-01T16:55:05.367Z,96695.13
2022-09-01T16:57:45.561Z,96692.78
2022-09-01T17:00:16.768Z,96698.53
2022-09-01T17:02:52.642Z,96685.28
2022-09-01T17:05:27.284Z,96695.41
2022-09-01T17:08:07.717Z,96693.72
2022-09-01T17:10:43.924Z,96693.81
2022-09-01T17:13:20.391Z,96698.88
2022-09-01T17:15:56.324Z,96693.72
2022-09-01T17:18:34.470Z,96688.50
2022-09-01T17:21:10.694Z,96701.47
2022-09-01T17:23:46.223Z,96702.84
2022-09-01T17:26:19.830Z,96696.53
2022-09-01T17:28:55.255Z,96698.41
2022-09-01T17:31:41.769Z,96697.47
2022-09-01T17:34:25.991Z,96699.47
2022-09-01T17:37:04.926Z,96702.72
2022-09-01T17:39:43.691Z,96708.63
2022-09-01T17:42:25.057Z,96704.97
2022-09-01T17:44:56.551Z,96709.84
2022-09-01T17:47:35.907Z,96709.72
2022-09-01T17:50:13.336Z,96718.78
2022-09-01T17:52:53.187Z,96723.66
2022-09-01T17:55:40.529Z,96722.16
2022-09-01T17:58:17.140Z,96715.38
2022-09-01T18:00:53.384Z,96718.09
2022-09-01T18:03:45.758Z,96729.03
2022-09-01T18:06:24.228Z,96719.34
2022-09-01T18:08:55.155Z,96716.84
2022-09-01T18:11:30.774Z,96725.41
2022-09-01T18:14:03.365Z,96728.59
2022-09-01T18:16:36.396Z,96734.34
2022-09-01T18:19:08.513Z,96733.00
2022-09-01T18:21:40.467Z,96729.19
2022-09-01T18:24:16.107Z,96729.50
2022-09-01T18:26:48.817Z,96740.13
2022-09-01T18:29:17.777Z,96739.25
2022-09-01T18:32:00.580Z,96752.34
2022-09-01T18:34:39.693Z,96740.66
2022-09-01T18:37:17.188Z,96746.38
2022-09-01T18:39:56.245Z,96745.03
2022-09-01T18:42:32.746Z,96750.53
2022-09-01T18:45:10.967Z,96757.25
2022-09-01T18:47:49.132Z,96742.34
2022-09-01T18:50:24.520Z,96745.72
2022-09-01T18:53:15.300Z,96742.88
2022-09-01T18:55:51.909Z,96748.38
2022-09-01T18:58:36.278Z,96752.59
2022-09-01T19:01:07.138Z,96750.94
2022-09-01T19:03:42.528Z,96750.09
2022-09-01T19:06:27.742Z,96748.97
2022-09-01T19:09:08.542Z,96751.13
2022-09-01T19:11:49.109Z,96751.47
2022-09-01T19:14:30.055Z,96752.81
2022-09-01T19:17:42.701Z,96747.44
2022-09-01T19:20:15.834Z,96751.66
2022-09-01T19:22:49.055Z,96755.31
2022-09-01T19:25:36.871Z,96755.13
2022-09-01T19:28:14.932Z,96756.50
2022-09-01T19:30:48.303Z,96762.50
2022-09-01T19:33:22.482Z,96759.66
2022-09-01T19:35:55.057Z,96758.31
2022-09-01T19:38:27.800Z,96762.50
2022-09-01T19:41:02.545Z,96757.13
2022-09-01T19:43:37.378Z,96751.09
2022-09-01T19:46:18.828Z,96754.44
2022-09-01T19:48:52.859Z,96761.63
2022-09-01T19:51:25.583Z,96754.91
2022-09-01T19:54:02.361Z,96760.75
2022-09-01T19:56:36.354Z,96760.09
2022-09-01T19:59:14.825Z,96760.75
2022-09-01T20:01:49.048Z,96761.06
2022-09-01T20:04:27.181Z,96759.75
2022-09-01T20:06:59.596Z,96760.38
2022-09-01T20:09:36.951Z,96753.00
2022-09-01T20:12:16.190Z,96755.31
2022-09-01T20:14:54.658Z,96762.47
2022-09-01T20:17:30.551Z,96757.47
2022-09-01T20:20:05.019Z,96750.94
2022-09-01T20:22:40.495Z,96750.75
2022-09-01T20:25:12.930Z,96745.25
2022-09-01T20:27:51.719Z,96752.38
2022-09-01T20:30:22.273Z,96751.03
2022-09-01T20:32:59.410Z,96750.34
2022-09-01T20:35:37.584Z,96751.69
2022-09-01T20:38:33.485Z,96753.09
2022-09-01T20:41:04.928Z,96747.41
2022-09-01T20:43:38.995Z,96746.72
2022-09-01T20:46:07.306Z,96745.22
2022-09-01T20:48:40.625Z,96751.03
2022-09-01T20:51:13.986Z,96746.31
2022-09-01T20:54:02.505Z,96749.63
2022-09-01T20:56:40.588Z,96742.41
2022-09-01T20:59:18.496Z,96750.91
2022-09-01T21:01:53.439Z,96740.00
2022-09-01T21:04:38.994Z,96742.50
2022-09-01T21:07:14.956Z,96735.44
2022-09-01T21:09:52.477Z,96741.78
2022-09-01T21:12:28.811Z,96740.56
2022-09-01T21:15:09.500Z,96739.56
2022-09-01T21:17:43.535Z,96733.19
2022-09-01T21:20:23.219Z,96741.66
2022-09-01T21:22:51.793Z,96734.66
2022-09-01T21:25:19.856Z,96734.44
2022-09-01T21:27:52.070Z,96733.88
2022-09-01T21:30:21.659Z,96739.69
2022-09-01T21:32:52.709Z,96738.84
2022-09-01T21:35:23.173Z,96745.47
2022-09-01T21:37:51.708Z,96742.44
2022-09-01T21:40:22.118Z,96741.25
2022-09-01T21:42:54.527Z,96745.88
2022-09-01T21:45:23.241Z,96747.16
2022-09-01T21:47:53.244Z,96742.56
2022-09-01T21:50:24.799Z,96743.41
2022-09-01T21:52:52.879Z,96736.69
2022-09-01T21:55:23.039Z,96737.69
2022-09-01T21:57:51.785Z,96739.00
2022-09-01T22:00:23.116Z,96732.81
2022-09-01T22:02:51.598Z,96727.13
2022-09-01T22:05:19.619Z,96736.09
2022-09-01T22:07:49.004Z,96729.56
2022-09-01T22:10:21.675Z,96724.81
2022-09-01T22:12:50.985Z,96723.97
2022-09-01T22:15:21.777Z,96722.59
2022-09-01T22:17:50.477Z,96728.25
2022-09-01T22:20:22.286Z,96724.50
2022-09-01T22:23:01.875Z,96729.31
2022-09-01T22:25:31.394Z,96724.81
2022-09-01T22:28:00.207Z,96733.09
2022-09-01T22:30:28.221Z,96725.41
2022-09-01T22:32:56.271Z,96730.88
2022-09-01T22:35:24.283Z,96726.97
2022-09-01T22:37:53.788Z,96724.75
2022-09-01T22:40:21.830Z,96728.94
2022-09-01T22:42:51.222Z,96730.78
2022-09-01T22:45:19.387Z,96728.88
2022-09-01T22:47:47.299Z,96728.19
2022-09-01T22:50:15.305Z,96726.34
2022-09-01T22:52:43.743Z,96729.84
2022-09-01T22:55:13.664Z,96725.22
2022-09-01T22:57:41.625Z,96735.16
2022-09-01T23:00:11.028Z,96724.69
2022-09-01T23:02:40.182Z,96723.69
2022-09-01T23:05:09.396Z,96724.81
2022-09-01T23:07:39.812Z,96726.66
2022-09-01T23:10:10.372Z,96723.75
2022-09-01T23:12:39.828Z,96718.41
2022-09-01T23:15:09.519Z,96713.91
2022-09-01T23:17:37.919Z,96715.31
2022-09-01T23:20:08.835Z,96714.75
2022-09-01T23:22:36.906Z,96709.59
2022-09-01T23:25:05.279Z,96706.09
2022-09-01T23:27:33.335Z,96712.09
2022-09-01T23:30:02.811Z,96706.75
2022-09-01T23:32:30.879Z,96707.75
2022-09-01T23:34:59.774Z,96702.44
2022-09-01T23:37:28.252Z,96700.22
2022-09-01T23:39:57.459Z,96698.25
2022-09-01T23:42:25.624Z,96695.72
2022-09-01T23:44:53.566Z,96694.59
2022-09-01T23:47:22.883Z,96684.81
2022-09-01T23:49:50.930Z,96689.97
2022-09-01T23:52:18.920Z,96686.47
2022-09-01T23:54:46.855Z,96681.16
2022-09-01T23:57:14.818Z,96685.25
2022-09-01T23:59:42.827Z,96682.59
